sensor_id;sensor_type;location;lat;lon;timestamp;pressure;altitude;pressure_sealevel;temperature;humidity
41040;BME280;48586;50.122;18.972;2022-07-29T00:00:09;98850.31;;;19.40;50.80
41040;BME280;48586;50.122;18.972;2022-07-29T00:03:12;98844.38;;;19.38;50.88
41040;BME280;48586;50.122;18.972;2022-07-29T00:06:14;98842.50;;;19.39;50.94
41040;BME280;48586;50.122;18.972;2022-07-29T00:09:17;98842.22;;;19.35;50.69
41040;BME280;48586;50.122;18.972;2022-07-29T00:12:19;98845.75;;;19.36;50.79
41040;BME280;48586;50.122;18.972;2022-07-29T00:15:23;98837.09;;;19.34;50.92
41040;BME280;48586;50.122;18.972;2022-07-29T00:18:25;98843.81;;;19.31;50.68
41040;BME280;48586;50.122;18.972;2022-07-29T00:21:27;98839.22;;;19.27;51.14
41040;BME280;48586;50.122;18.972;2022-07-29T00:24:30;98833.56;;;19.23;51.04
41040;BME280;48586;50.122;18.972;2022-07-29T00:27:32;98829.78;;;19.19;51.02
41040;BME280;48586;50.122;18.972;2022-07-29T00:30:35;98833.00;;;19.21;51.34
41040;BME280;48586;50.122;18.972;2022-07-29T00:33:37;98830.81;;;19.18;51.33
41040;BME280;48586;50.122;18.972;2022-07-29T00:36:40;98823.84;;;19.17;51.05
41040;BME280;48586;50.122;18.972;2022-07-29T00:39:42;98828.69;;;19.20;50.93
41040;BME280;48586;50.122;18.972;2022-07-29T00:42:46;98816.34;;;19.19;51.36
41040;BME280;48586;50.122;18.972;2022-07-29T00:45:50;98820.06;;;19.18;50.98
41040;BME280;48586;50.122;18.972;2022-07-29T00:48:52;98819.28;;;19.17;51.12
41040;BME280;48586;50.122;18.972;2022-07-29T00:51:54;98815.25;;;19.15;51.23
41040;BME280;48586;50.122;18.972;2022-07-29T00:54:57;98819.00;;;19.14;50.63
41040;BME280;48586;50.122;18.972;2022-07-29T00:58:00;98821.13;;;19.12;50.64
41040;BME280;48586;50.122;18.972;2022-07-29T01:01:03;98813.53;;;19.09;50.69
41040;BME280;48586;50.122;18.972;2022-07-29T01:04:06;98811.13;;;19.07;50.54
41040;BME280;48586;50.122;18.972;2022-07-29T01:07:08;98800.66;;;19.06;50.68
41040;BME280;48586;50.122;18.972;2022-07-29T01:10:13;98804.91;;;19.02;50.66
41040;BME280;48586;50.122;18.972;2022-07-29T01:13:16;98805.97;;;19.01;50.80
41040;BME280;48586;50.122;18.972;2022-07-29T01:16:25;98798.47;;;19.03;50.94
41040;BME280;48586;50.122;18.972;2022-07-29T01:19:45;98807.84;;;19.00;50.73
41040;BME280;48586;50.122;18.972;2022-07-29T01:23:11;98802.75;;;18.99;50.69
41040;BME280;48586;50.122;18.972;2022-07-29T01:26:41;98798.69;;;18.96;50.94
41040;BME280;48586;50.122;18.972;2022-07-29T01:29:49;98801.91;;;18.93;50.00
41040;BME280;48586;50.122;18.972;2022-07-29T01:32:56;98799.22;;;18.93;50.18
41040;BME280;48586;50.122;18.972;2022-07-29T01:36:02;98800.28;;;18.92;49.75
41040;BME280;48586;50.122;18.972;2022-07-29T01:39:11;98801.59;;;18.89;49.76
41040;BME280;48586;50.122;18.972;2022-07-29T01:42:18;98798.66;;;18.91;49.76
41040;BME280;48586;50.122;18.972;2022-07-29T01:45:28;98798.13;;;18.89;49.88
41040;BME280;48586;50.122;18.972;2022-07-29T01:48:38;98791.38;;;18.86;49.50
41040;BME280;48586;50.122;18.972;2022-07-29T01:51:46;98785.47;;;18.84;49.50
41040;BME280;48586;50.122;18.972;2022-07-29T01:54:53;98786.50;;;18.83;49.18
41040;BME280;48586;50.122;18.972;2022-07-29T01:57:58;98783.59;;;18.85;49.45
41040;BME280;48586;50.122;18.972;2022-07-29T02:01:03;98786.00;;;18.86;49.22
41040;BME280;48586;50.122;18.972;2022-07-29T02:04:07;98792.44;;;18.85;49.28
41040;BME280;48586;50.122;18.972;2022-07-29T02:07:13;98790.84;;;18.84;49.31
41040;BME280;48586;50.122;18.972;2022-07-29T02:10:19;98787.34;;;18.84;49.12
41040;BME280;48586;50.122;18.972;2022-07-29T02:13:22;98779.00;;;18.80;49.67
41040;BME280;48586;50.122;18.972;2022-07-29T02:16:27;98790.50;;;18.76;48.99
41040;BME280;48586;50.122;18.972;2022-07-29T02:19:32;98787.81;;;18.76;49.29
41040;BME280;48586;50.122;18.972;2022-07-29T02:22:37;98791.03;;;18.78;49.33
41040;BME280;48586;50.122;18.972;2022-07-29T02:25:41;98783.75;;;18.73;49.28
41040;BME280;48586;50.122;18.972;2022-07-29T02:28:44;98787.25;;;18.74;49.27
41040;BME280;48586;50.122;18.972;2022-07-29T02:31:49;98788.34;;;18.73;49.18
41040;BME280;48586;50.122;18.972;2022-07-29T02:34:52;98779.97;;;18.69;49.21
41040;BME280;48586;50.122;18.972;2022-07-29T02:37:55;98771.91;;;18.69;49.32
41040;BME280;48586;50.122;18.972;2022-07-29T02:41:17;98767.31;;;18.64;48.92
41040;BME280;48586;50.122;18.972;2022-07-29T02:44:21;98768.63;;;18.62;49.04
41040;BME280;48586;50.122;18.972;2022-07-29T02:47:31;98768.38;;;18.58;49.48
41040;BME280;48586;50.122;18.972;2022-07-29T02:50:38;98768.38;;;18.58;49.17
41040;BME280;48586;50.122;18.972;2022-07-29T02:53:49;98768.91;;;18.60;49.15
41040;BME280;48586;50.122;18.972;2022-07-29T02:56:53;98764.59;;;18.59;49.19
41040;BME280;48586;50.122;18.972;2022-07-29T02:59:59;98763.81;;;18.59;49.26
41040;BME280;48586;50.122;18.972;2022-07-29T03:03:08;98758.94;;;18.56;49.39
41040;BME280;48586;50.122;18.972;2022-07-29T03:06:13;98755.16;;;18.52;49.12
41040;BME280;48586;50.122;18.972;2022-07-29T03:09:17;98752.97;;;18.49;49.20
41040;BME280;48586;50.122;18.972;2022-07-29T03:12:19;98755.63;;;18.43;49.20
41040;BME280;48586;50.122;18.972;2022-07-29T03:15:21;98762.59;;;18.44;49.28
41040;BME280;48586;50.122;18.972;2022-07-29T03:18:25;98759.69;;;18.46;49.34
41040;BME280;48586;50.122;18.972;2022-07-29T03:21:27;98759.09;;;18.44;49.58
41040;BME280;48586;50.122;18.972;2022-07-29T03:24:30;98755.13;;;18.47;49.45
41040;BME280;48586;50.122;18.972;2022-07-29T03:27:32;98750.56;;;18.47;49.51
41040;BME280;48586;50.122;18.972;2022-07-29T03:30:35;98753.81;;;18.49;49.83
41040;BME280;48586;50.122;18.972;2022-07-29T03:33:38;98753.53;;;18.51;49.79
41040;BME280;48586;50.122;18.972;2022-07-29T03:36:40;98750.06;;;18.50;49.48
41040;BME280;48586;50.122;18.972;2022-07-29T03:39:42;98761.88;;;18.54;49.73
41040;BME280;48586;50.122;18.972;2022-07-29T03:42:46;98756.53;;;18.54;49.64
41040;BME280;48586;50.122;18.972;2022-07-29T03:45:50;98763.50;;;18.55;49.84
41040;BME280;48586;50.122;18.972;2022-07-29T03:48:58;98767.25;;;18.54;49.75
41040;BME280;48586;50.122;18.972;2022-07-29T03:52:02;98771.00;;;18.53;49.59
41040;BME280;48586;50.122;18.972;2022-07-29T03:55:05;98767.00;;;18.56;49.65
41040;BME280;48586;50.122;18.972;2022-07-29T03:58:07;98760.56;;;18.57;49.79
41040;BME280;48586;50.122;18.972;2022-07-29T04:01:09;98760.84;;;18.60;49.89
41040;BME280;48586;50.122;18.972;2022-07-29T04:04:13;98757.38;;;18.65;50.13
41040;BME280;48586;50.122;18.972;2022-07-29T04:07:15;98759.84;;;18.66;50.16
41040;BME280;48586;50.122;18.972;2022-07-29T04:10:18;98761.75;;;18.71;50.05
41040;BME280;48586;50.122;18.972;2022-07-29T04:13:20;98771.44;;;18.77;49.68
41040;BME280;48586;50.122;18.972;2022-07-29T04:16:22;98776.03;;;18.82;49.71
41040;BME280;48586;50.122;18.972;2022-07-29T04:19:25;98762.09;;;18.85;50.01
41040;BME280;48586;50.122;18.972;2022-07-29T04:22:28;98767.81;;;18.93;49.66
41040;BME280;48586;50.122;18.972;2022-07-29T04:25:29;98762.47;;;18.99;49.48
41040;BME280;48586;50.122;18.972;2022-07-29T04:28:31;98763.28;;;19.04;49.43
41040;BME280;48586;50.122;18.972;2022-07-29T04:31:33;98750.47;;;19.11;49.54
41040;BME280;48586;50.122;18.972;2022-07-29T04:34:36;98748.88;;;19.15;49.50
41040;BME280;48586;50.122;18.972;2022-07-29T04:37:38;98751.28;;;19.17;49.67
41040;BME280;48586;50.122;18.972;2022-07-29T04:40:40;98743.22;;;19.17;49.47
41040;BME280;48586;50.122;18.972;2022-07-29T04:43:42;98738.41;;;19.14;49.70
41040;BME280;48586;50.122;18.972;2022-07-29T04:46:43;98737.88;;;19.17;49.87
41040;BME280;48586;50.122;18.972;2022-07-29T04:49:48;98736.53;;;19.19;49.73
41040;BME280;48586;50.122;18.972;2022-07-29T04:52:50;98737.34;;;19.20;49.77
41040;BME280;48586;50.122;18.972;2022-07-29T04:55:52;98746.00;;;19.27;49.98
41040;BME280;48586;50.122;18.972;2022-07-29T04:58:54;98751.13;;;19.39;49.71
41040;BME280;48586;50.122;18.972;2022-07-29T05:01:56;98748.22;;;19.51;49.72
41040;BME280;48586;50.122;18.972;2022-07-29T05:04:59;98750.94;;;19.61;49.41
41040;BME280;48586;50.122;18.972;2022-07-29T05:08:01;98756.88;;;19.73;49.52
41040;BME280;48586;50.122;18.972;2022-07-29T05:11:03;98741.88;;;19.87;49.26
41040;BME280;48586;50.122;18.972;2022-07-29T05:14:05;98743.22;;;20.00;49.25
41040;BME280;48586;50.122;18.972;2022-07-29T05:17:06;98748.66;;;20.10;49.02
41040;BME280;48586;50.122;18.972;2022-07-29T05:20:10;98743.03;;;20.22;48.85
41040;BME280;48586;50.122;18.972;2022-07-29T05:23:12;98744.63;;;20.33;48.83
41040;BME280;48586;50.122;18.972;2022-07-29T05:26:15;98750.56;;;20.40;48.87
41040;BME280;48586;50.122;18.972;2022-07-29T05:29:18;98745.97;;;20.51;48.72
41040;BME280;48586;50.122;18.972;2022-07-29T05:32:20;98742.50;;;20.61;48.45
41040;BME280;48586;50.122;18.972;2022-07-29T05:35:23;98745.16;;;20.71;48.73
41040;BME280;48586;50.122;18.972;2022-07-29T05:38:25;98745.69;;;20.78;48.40
41040;BME280;48586;50.122;18.972;2022-07-29T05:41:27;98744.06;;;20.87;48.44
41040;BME280;48586;50.122;18.972;2022-07-29T05:44:30;98748.38;;;20.99;48.43
41040;BME280;48586;50.122;18.972;2022-07-29T05:47:34;98750.47;;;21.12;48.53
41040;BME280;48586;50.122;18.972;2022-07-29T05:50:37;98744.50;;;21.25;48.24
41040;BME280;48586;50.122;18.972;2022-07-29T05:53:39;98741.00;;;21.30;48.32
41040;BME280;48586;50.122;18.972;2022-07-29T05:56:41;98744.22;;;21.32;48.36
41040;BME280;48586;50.122;18.972;2022-07-29T05:59:44;98743.69;;;21.35;48.23
41040;BME280;48586;50.122;18.972;2022-07-29T06:02:47;98751.47;;;21.41;48.28
41040;BME280;48586;50.122;18.972;2022-07-29T06:05:50;98745.22;;;21.56;48.04
41040;BME280;48586;50.122;18.972;2022-07-29T06:08:53;98746.50;;;21.64;47.94
41040;BME280;48586;50.122;18.972;2022-07-29T06:11:55;98740.00;;;21.70;48.02
41040;BME280;48586;50.122;18.972;2022-07-29T06:14:58;98738.91;;;21.76;47.89
41040;BME280;48586;50.122;18.972;2022-07-29T06:18:00;98735.09;;;21.87;47.87
41040;BME280;48586;50.122;18.972;2022-07-29T06:21:07;98734.72;;;22.04;47.61
41040;BME280;48586;50.122;18.972;2022-07-29T06:24:10;98727.28;;;22.20;47.70
41040;BME280;48586;50.122;18.972;2022-07-29T06:27:12;98737.38;;;22.43;47.93
41040;BME280;48586;50.122;18.972;2022-07-29T06:30:14;98726.94;;;22.66;47.44
41040;BME280;48586;50.122;18.972;2022-07-29T06:33:18;98733.56;;;22.79;47.08
41040;BME280;48586;50.122;18.972;2022-07-29T06:36:21;98733.41;;;22.94;47.09
41040;BME280;48586;50.122;18.972;2022-07-29T06:39:23;98738.41;;;23.06;47.11
41040;BME280;48586;50.122;18.972;2022-07-29T06:42:25;98735.81;;;23.19;47.20
41040;BME280;48586;50.122;18.972;2022-07-29T06:45:27;98744.09;;;23.28;47.08
41040;BME280;48586;50.122;18.972;2022-07-29T06:48:29;98753.81;;;23.34;46.58
41040;BME280;48586;50.122;18.972;2022-07-29T06:51:33;98749.69;;;23.37;46.72
41040;BME280;48586;50.122;18.972;2022-07-29T06:54:35;98744.63;;;23.54;46.94
41040;BME280;48586;50.122;18.972;2022-07-29T06:57:37;98746.81;;;23.71;46.78
41040;BME280;48586;50.122;18.972;2022-07-29T07:00:40;98738.59;;;23.81;46.79
41040;BME280;48586;50.122;18.972;2022-07-29T07:03:42;98735.38;;;23.98;46.51
41040;BME280;48586;50.122;18.972;2022-07-29T07:06:45;98736.56;;;24.11;46.55
41040;BME280;48586;50.122;18.972;2022-07-29T07:09:47;98730.47;;;24.19;46.45
41040;BME280;48586;50.122;18.972;2022-07-29T07:12:49;98723.69;;;24.35;46.25
41040;BME280;48586;50.122;18.972;2022-07-29T07:15:51;98723.25;;;24.47;45.97
41040;BME280;48586;50.122;18.972;2022-07-29T07:18:53;98731.59;;;24.51;46.04
41040;BME280;48586;50.122;18.972;2022-07-29T07:21:57;98737.53;;;24.66;46.00
41040;BME280;48586;50.122;18.972;2022-07-29T07:24:58;98739.00;;;24.91;45.59
41040;BME280;48586;50.122;18.972;2022-07-29T07:28:01;98733.41;;;25.02;45.34
41040;BME280;48586;50.122;18.972;2022-07-29T07:31:03;98739.53;;;25.07;45.20
41040;BME280;48586;50.122;18.972;2022-07-29T07:34:06;98738.13;;;25.10;45.69
41040;BME280;48586;50.122;18.972;2022-07-29T07:37:09;98744.47;;;25.19;45.23
41040;BME280;48586;50.122;18.972;2022-07-29T07:40:12;98737.22;;;25.14;45.46
41040;BME280;48586;50.122;18.972;2022-07-29T07:43:16;98735.81;;;25.17;45.39
41040;BME280;48586;50.122;18.972;2022-07-29T07:46:18;98735.81;;;25.31;45.39
41040;BME280;48586;50.122;18.972;2022-07-29T07:49:20;98731.09;;;25.50;45.04
41040;BME280;48586;50.122;18.972;2022-07-29T07:52:23;98731.59;;;25.66;44.95
41040;BME280;48586;50.122;18.972;2022-07-29T07:55:26;98728.94;;;25.75;44.19
41040;BME280;48586;50.122;18.972;2022-07-29T07:58:28;98734.16;;;25.85;43.95
41040;BME280;48586;50.122;18.972;2022-07-29T08:01:30;98733.63;;;25.97;44.27
41040;BME280;48586;50.122;18.972;2022-07-29T08:04:32;98729.47;;;25.99;44.17
41040;BME280;48586;50.122;18.972;2022-07-29T08:07:35;98730.78;;;26.02;44.41
41040;BME280;48586;50.122;18.972;2022-07-29T08:10:37;98735.25;;;26.20;43.72
41040;BME280;48586;50.122;18.972;2022-07-29T08:13:56;98729.94;;;26.37;43.70
41040;BME280;48586;50.122;18.972;2022-07-29T08:16:58;98720.53;;;26.66;43.82
41040;BME280;48586;50.122;18.972;2022-07-29T08:20:00;98727.78;;;26.79;43.14
41040;BME280;48586;50.122;18.972;2022-07-29T08:23:04;98725.25;;;26.83;43.25
41040;BME280;48586;50.122;18.972;2022-07-29T08:26:08;98712.59;;;27.09;42.91
41040;BME280;48586;50.122;18.972;2022-07-29T08:29:11;98714.41;;;27.31;42.34
41040;BME280;48586;50.122;18.972;2022-07-29T08:32:13;98731.63;;;27.49;42.33
41040;BME280;48586;50.122;18.972;2022-07-29T08:35:15;98726.03;;;27.63;41.59
41040;BME280;48586;50.122;18.972;2022-07-29T08:38:19;98728.47;;;27.82;42.11
41040;BME280;48586;50.122;18.972;2022-07-29T08:41:21;98722.84;;;27.96;41.80
41040;BME280;48586;50.122;18.972;2022-07-29T08:44:23;98732.63;;;28.05;41.61
41040;BME280;48586;50.122;18.972;2022-07-29T08:47:27;98737.94;;;28.19;40.96
41040;BME280;48586;50.122;18.972;2022-07-29T08:50:29;98725.25;;;28.40;41.30
41040;BME280;48586;50.122;18.972;2022-07-29T08:53:33;98714.66;;;28.48;40.77
41040;BME280;48586;50.122;18.972;2022-07-29T08:56:36;98712.38;;;28.58;40.28
41040;BME280;48586;50.122;18.972;2022-07-29T08:59:40;98706.13;;;28.58;40.51
41040;BME280;48586;50.122;18.972;2022-07-29T09:02:50;98705.28;;;28.66;40.30
41040;BME280;48586;50.122;18.972;2022-07-29T09:05:53;98704.84;;;28.64;40.26
41040;BME280;48586;50.122;18.972;2022-07-29T09:08:58;98713.13;;;28.76;39.99
41040;BME280;48586;50.122;18.972;2022-07-29T09:12:01;98715.16;;;28.97;39.76
41040;BME280;48586;50.122;18.972;2022-07-29T09:15:05;98717.53;;;28.98;39.57
41040;BME280;48586;50.122;18.972;2022-07-29T09:18:08;98722.63;;;29.17;39.49
41040;BME280;48586;50.122;18.972;2022-07-29T09:21:12;98709.84;;;29.38;39.23
41040;BME280;48586;50.122;18.972;2022-07-29T09:24:40;98709.19;;;29.62;38.33
41040;BME280;48586;50.122;18.972;2022-07-29T09:27:49;98704.22;;;29.64;38.18
41040;BME280;48586;50.122;18.972;2022-07-29T09:30:52;98701.78;;;29.63;38.47
41040;BME280;48586;50.122;18.972;2022-07-29T09:33:57;98701.63;;;29.68;38.54
41040;BME280;48586;50.122;18.972;2022-07-29T09:37:00;98701.94;;;29.87;38.45
41040;BME280;48586;50.122;18.972;2022-07-29T09:40:13;98692.78;;;30.25;37.47
41040;BME280;48586;50.122;18.972;2022-07-29T09:43:16;98701.75;;;30.47;37.42
41040;BME280;48586;50.122;18.972;2022-07-29T09:46:18;98699.22;;;30.54;37.25
41040;BME280;48586;50.122;18.972;2022-07-29T09:49:21;98687.44;;;30.74;36.95
41040;BME280;48586;50.122;18.972;2022-07-29T09:52:23;98685.63;;;30.91;36.78
41040;BME280;48586;50.122;18.972;2022-07-29T09:55:27;98682.00;;;30.99;36.58
41040;BME280;48586;50.122;18.972;2022-07-29T09:58:30;98682.94;;;31.15;36.40
41040;BME280;48586;50.122;18.972;2022-07-29T10:01:34;98679.63;;;31.22;36.41
41040;BME280;48586;50.122;18.972;2022-07-29T10:04:38;98668.88;;;31.41;36.08
41040;BME280;48586;50.122;18.972;2022-07-29T10:07:44;98672.97;;;31.47;35.59
41040;BME280;48586;50.122;18.972;2022-07-29T10:10:48;98676.97;;;31.50;35.26
41040;BME280;48586;50.122;18.972;2022-07-29T10:13:50;98677.88;;;31.42;35.74
41040;BME280;48586;50.122;18.972;2022-07-29T10:16:52;98670.38;;;31.26;35.32
41040;BME280;48586;50.122;18.972;2022-07-29T10:19:54;98669.66;;;30.93;36.23
41040;BME280;48586;50.122;18.972;2022-07-29T10:22:57;98674.63;;;30.54;36.71
41040;BME280;48586;50.122;18.972;2022-07-29T10:26:01;98671.72;;;30.59;36.95
41040;BME280;48586;50.122;18.972;2022-07-29T10:29:03;98672.53;;;31.08;36.60
41040;BME280;48586;50.122;18.972;2022-07-29T10:32:20;98671.91;;;31.64;35.88
41040;BME280;48586;50.122;18.972;2022-07-29T10:35:38;98671.34;;;31.99;34.68
41040;BME280;48586;50.122;18.972;2022-07-29T10:38:44;98669.44;;;32.15;34.66
41040;BME280;48586;50.122;18.972;2022-07-29T10:41:56;98674.00;;;32.23;33.38
41040;BME280;48586;50.122;18.972;2022-07-29T10:45:02;98667.66;;;32.07;34.45
41040;BME280;48586;50.122;18.972;2022-07-29T10:48:05;98664.06;;;31.91;34.06
41040;BME280;48586;50.122;18.972;2022-07-29T10:51:07;98662.31;;;31.98;35.37
41040;BME280;48586;50.122;18.972;2022-07-29T10:54:09;98655.25;;;32.25;34.99
41040;BME280;48586;50.122;18.972;2022-07-29T10:57:20;98657.84;;;32.50;34.02
41040;BME280;48586;50.122;18.972;2022-07-29T11:00:30;98656.91;;;32.90;34.05
41040;BME280;48586;50.122;18.972;2022-07-29T11:03:47;98656.13;;;33.24;32.95
41040;BME280;48586;50.122;18.972;2022-07-29T11:07:06;98644.41;;;33.43;31.96
41040;BME280;48586;50.122;18.972;2022-07-29T11:10:22;98651.72;;;33.20;31.38
41040;BME280;48586;50.122;18.972;2022-07-29T11:13:53;98648.94;;;33.00;31.78
41040;BME280;48586;50.122;18.972;2022-07-29T11:17:00;98664.22;;;32.54;33.68
41040;BME280;48586;50.122;18.972;2022-07-29T11:20:32;98659.09;;;32.36;33.86
41040;BME280;48586;50.122;18.972;2022-07-29T11:23:34;98645.31;;;32.80;33.88
41040;BME280;48586;50.122;18.972;2022-07-29T11:26:39;98646.78;;;33.09;33.28
41040;BME280;48586;50.122;18.972;2022-07-29T11:29:50;98657.56;;;33.18;32.62
41040;BME280;48586;50.122;18.972;2022-07-29T11:32:53;98655.91;;;32.98;33.49
41040;BME280;48586;50.122;18.972;2022-07-29T11:36:08;98645.72;;;32.82;32.43
41040;BME280;48586;50.122;18.972;2022-07-29T11:39:26;98634.03;;;32.70;32.66
41040;BME280;48586;50.122;18.972;2022-07-29T11:42:43;98631.38;;;33.05;32.86
41040;BME280;48586;50.122;18.972;2022-07-29T11:45:47;98630.22;;;33.41;32.71
41040;BME280;48586;50.122;18.972;2022-07-29T11:48:51;98626.69;;;33.99;32.52
41040;BME280;48586;50.122;18.972;2022-07-29T11:51:55;98632.09;;;34.57;32.30
41040;BME280;48586;50.122;18.972;2022-07-29T11:54:57;98631.16;;;34.95;29.93
41040;BME280;48586;50.122;18.972;2022-07-29T11:58:00;98627.63;;;34.95;31.62
41040;BME280;48586;50.122;18.972;2022-07-29T12:01:03;98627.63;;;34.95;31.29
41040;BME280;48586;50.122;18.972;2022-07-29T12:04:06;98627.78;;;34.82;31.26
41040;BME280;48586;50.122;18.972;2022-07-29T12:07:08;98636.88;;;34.60;31.23
41040;BME280;48586;50.122;18.972;2022-07-29T12:10:10;98624.56;;;34.31;31.67
41040;BME280;48586;50.122;18.972;2022-07-29T12:13:13;98622.66;;;33.93;31.43
41040;BME280;48586;50.122;18.972;2022-07-29T12:16:18;98623.38;;;33.90;31.66
41040;BME280;48586;50.122;18.972;2022-07-29T12:19:21;98624.81;;;33.83;31.47
41040;BME280;48586;50.122;18.972;2022-07-29T12:22:26;98621.66;;;34.01;30.92
41040;BME280;48586;50.122;18.972;2022-07-29T12:25:33;98623.38;;;34.09;30.88
41040;BME280;48586;50.122;18.972;2022-07-29T12:28:37;98614.50;;;34.19;30.18
41040;BME280;48586;50.122;18.972;2022-07-29T12:31:41;98615.38;;;34.23;31.07
41040;BME280;48586;50.122;18.972;2022-07-29T12:34:43;98616.06;;;34.17;31.18
41040;BME280;48586;50.122;18.972;2022-07-29T12:37:47;98626.97;;;34.13;30.66
41040;BME280;48586;50.122;18.972;2022-07-29T12:40:53;98619.44;;;33.87;30.67
41040;BME280;48586;50.122;18.972;2022-07-29T12:43:56;98613.75;;;33.80;31.17
41040;BME280;48586;50.122;18.972;2022-07-29T12:47:03;98620.69;;;33.54;31.33
41040;BME280;48586;50.122;18.972;2022-07-29T12:50:10;98615.63;;;33.21;31.24
41040;BME280;48586;50.122;18.972;2022-07-29T12:53:13;98607.38;;;33.02;32.35
41040;BME280;48586;50.122;18.972;2022-07-29T12:56:15;98604.66;;;32.86;32.50
41040;BME280;48586;50.122;18.972;2022-07-29T12:59:18;98599.94;;;32.86;32.12
41040;BME280;48586;50.122;18.972;2022-07-29T13:02:23;98600.69;;;32.83;32.38
41040;BME280;48586;50.122;18.972;2022-07-29T13:05:38;98605.78;;;32.69;31.83
41040;BME280;48586;50.122;18.972;2022-07-29T13:08:58;98598.72;;;32.36;31.80
41040;BME280;48586;50.122;18.972;2022-07-29T13:12:06;98597.38;;;32.15;32.13
41040;BME280;48586;50.122;18.972;2022-07-29T13:15:13;98598.31;;;32.22;32.89
41040;BME280;48586;50.122;18.972;2022-07-29T13:18:30;98598.88;;;32.44;32.30
41040;BME280;48586;50.122;18.972;2022-07-29T13:21:32;98588.81;;;32.48;31.97
41040;BME280;48586;50.122;18.972;2022-07-29T13:24:45;98581.91;;;32.54;31.71
41040;BME280;48586;50.122;18.972;2022-07-29T13:27:47;98579.31;;;32.61;31.78
41040;BME280;48586;50.122;18.972;2022-07-29T13:30:50;98562.84;;;32.77;31.86
41040;BME280;48586;50.122;18.972;2022-07-29T13:33:53;98567.13;;;32.74;31.07
41040;BME280;48586;50.122;18.972;2022-07-29T13:36:56;98555.31;;;32.74;30.21
41040;BME280;48586;50.122;18.972;2022-07-29T13:39:58;98553.72;;;32.73;31.48
41040;BME280;48586;50.122;18.972;2022-07-29T13:43:00;98544.09;;;32.63;31.09
41040;BME280;48586;50.122;18.972;2022-07-29T13:46:02;98541.81;;;32.33;31.78
41040;BME280;48586;50.122;18.972;2022-07-29T13:49:06;98535.03;;;32.27;31.43
41040;BME280;48586;50.122;18.972;2022-07-29T13:52:08;98533.59;;;32.33;31.58
41040;BME280;48586;50.122;18.972;2022-07-29T13:55:10;98524.63;;;32.52;31.51
41040;BME280;48586;50.122;18.972;2022-07-29T13:58:12;98526.59;;;32.52;31.72
41040;BME280;48586;50.122;18.972;2022-07-29T14:01:15;98523.81;;;32.68;31.79
41040;BME280;48586;50.122;18.972;2022-07-29T14:04:18;98525.56;;;32.76;31.48
41040;BME280;48586;50.122;18.972;2022-07-29T14:07:20;98521.69;;;32.61;31.44
41040;BME280;48586;50.122;18.972;2022-07-29T14:10:24;98519.97;;;32.53;31.59
41040;BME280;48586;50.122;18.972;2022-07-29T14:13:27;98515.56;;;32.32;31.63
41040;BME280;48586;50.122;18.972;2022-07-29T14:16:29;98516.97;;;32.26;31.56
41040;BME280;48586;50.122;18.972;2022-07-29T14:19:33;98513.16;;;32.31;31.84
41040;BME280;48586;50.122;18.972;2022-07-29T14:22:38;98518.56;;;32.27;32.33
41040;BME280;48586;50.122;18.972;2022-07-29T14:25:40;98509.31;;;32.51;31.81
41040;BME280;48586;50.122;18.972;2022-07-29T14:28:43;98506.09;;;32.65;31.48
41040;BME280;48586;50.122;18.972;2022-07-29T14:31:48;98512.38;;;32.81;31.19
41040;BME280;48586;50.122;18.972;2022-07-29T14:34:52;98500.25;;;32.82;31.14
41040;BME280;48586;50.122;18.972;2022-07-29T14:37:55;98506.56;;;32.67;30.99
41040;BME280;48586;50.122;18.972;2022-07-29T14:40:58;98497.00;;;32.61;31.34
41040;BME280;48586;50.122;18.972;2022-07-29T14:44:00;98491.81;;;32.91;31.39
41040;BME280;48586;50.122;18.972;2022-07-29T14:47:02;98488.81;;;33.35;30.81
41040;BME280;48586;50.122;18.972;2022-07-29T14:50:08;98484.63;;;33.64;30.49
41040;BME280;48586;50.122;18.972;2022-07-29T14:53:11;98485.63;;;33.75;29.93
41040;BME280;48586;50.122;18.972;2022-07-29T14:56:13;98492.53;;;33.66;30.16
41040;BME280;48586;50.122;18.972;2022-07-29T14:59:17;98494.66;;;33.14;30.35
41040;BME280;48586;50.122;18.972;2022-07-29T15:02:19;98496.75;;;32.66;31.30
41040;BME280;48586;50.122;18.972;2022-07-29T15:05:23;98500.97;;;32.28;31.29
41040;BME280;48586;50.122;18.972;2022-07-29T15:08:27;98505.78;;;31.87;32.09
41040;BME280;48586;50.122;18.972;2022-07-29T15:11:31;98519.47;;;31.44;32.05
41040;BME280;48586;50.122;18.972;2022-07-29T15:14:34;98525.63;;;31.12;32.79
41040;BME280;48586;50.122;18.972;2022-07-29T15:17:36;98522.00;;;30.84;33.23
41040;BME280;48586;50.122;18.972;2022-07-29T15:20:40;98532.88;;;30.68;33.67
41040;BME280;48586;50.122;18.972;2022-07-29T15:23:43;98541.72;;;30.53;33.47
41040;BME280;48586;50.122;18.972;2022-07-29T15:26:46;98545.97;;;30.38;33.43
41040;BME280;48586;50.122;18.972;2022-07-29T15:29:49;98552.19;;;30.14;33.70
41040;BME280;48586;50.122;18.972;2022-07-29T15:32:52;98551.19;;;29.85;33.83
41040;BME280;48586;50.122;18.972;2022-07-29T15:35:57;98536.59;;;29.69;34.33
41040;BME280;48586;50.122;18.972;2022-07-29T15:38:59;98550.19;;;29.57;34.34
41040;BME280;48586;50.122;18.972;2022-07-29T15:42:02;98543.34;;;29.51;34.73
41040;BME280;48586;50.122;18.972;2022-07-29T15:45:06;98552.88;;;29.45;35.02
41040;BME280;48586;50.122;18.972;2022-07-29T15:48:09;98547.78;;;29.34;34.97
41040;BME280;48586;50.122;18.972;2022-07-29T15:51:13;98552.97;;;29.27;35.51
41040;BME280;48586;50.122;18.972;2022-07-29T15:54:16;98546.78;;;29.18;35.40
41040;BME280;48586;50.122;18.972;2022-07-29T15:57:18;98555.59;;;29.03;35.70
41040;BME280;48586;50.122;18.972;2022-07-29T16:00:20;98565.19;;;28.79;36.19
41040;BME280;48586;50.122;18.972;2022-07-29T16:03:23;98570.38;;;28.34;38.12